sensor_id;sensor_type;location;lat;lon;timestamp;pressure;altitude;pressure_sealevel;temperature;humidity
60246;BME280;46107;53.356;-1.524;2023-05-16T00:01:26;99663.00;;;6.97;58.85
60246;BME280;46107;53.356;-1.524;2023-05-16T00:03:54;99661.89;;;7.22;59.28
60246;BME280;46107;53.356;-1.524;2023-05-16T00:06:21;99659.34;;;6.75;58.49
60246;BME280;46107;53.356;-1.524;2023-05-16T00:08:49;99655.56;;;7.65;57.04
60246;BME280;46107;53.356;-1.524;2023-05-16T00:11:17;99659.66;;;6.43;59.25
60246;BME280;46107;53.356;-1.524;2023-05-16T00:13:45;99653.78;;;7.37;58.26
60246;BME280;46107;53.356;-1.524;2023-05-16T00:16:12;99655.08;;;6.37;60.58
60246;BME280;46107;53.356;-1.524;2023-05-16T00:18:40;99650.95;;;7.65;57.15
60246;BME280;46107;53.356;-1.524;2023-05-16T00:21:07;99653.48;;;7.10;58.43
60246;BME280;46107;53.356;-1.524;2023-05-16T00:23:35;99650.15;;;7.46;56.69
60246;BME280;46107;53.356;-1.524;2023-05-16T00:26:03;99655.56;;;8.06;56.32
60246;BME280;46107;53.356;-1.524;2023-05-16T00:28:30;99652.11;;;7.02;58.82
60246;BME280;46107;53.356;-1.524;2023-05-16T00:30:58;99650.20;;;7.43;58.41
60246;BME280;46107;53.356;-1.524;2023-05-16T00:33:25;99651.97;;;7.60;57.70
60246;BME280;46107;53.356;-1.524;2023-05-16T00:35:52;99653.10;;;6.70;58.86
60246;BME280;46107;53.356;-1.524;2023-05-16T00:38:20;99648.86;;;7.44;56.93
60246;BME280;46107;53.356;-1.524;2023-05-16T00:40:47;99652.13;;;7.03;57.13
60246;BME280;46107;53.356;-1.524;2023-05-16T00:43:15;99655.92;;;6.57;60.02
60246;BME280;46107;53.356;-1.524;2023-05-16T00:45:43;99652.34;;;7.62;57.49
60246;BME280;46107;53.356;-1.524;2023-05-16T00:48:13;99657.57;;;6.98;59.27
60246;BME280;46107;53.356;-1.524;2023-05-16T00:50:42;99659.24;;;6.73;60.26
60246;BME280;46107;53.356;-1.524;2023-05-16T00:53:10;99654.91;;;6.98;58.06
60246;BME280;46107;53.356;-1.524;2023-05-16T00:55:38;99654.08;;;6.49;59.22
60246;BME280;46107;53.356;-1.524;2023-05-16T00:58:06;99651.14;;;6.16;60.52
60246;BME280;46107;53.356;-1.524;2023-05-16T01:00:35;99652.31;;;7.05;59.26
60246;BME280;46107;53.356;-1.524;2023-05-16T01:03:04;99654.93;;;5.64;63.28
60246;BME280;46107;53.356;-1.524;2023-05-16T01:05:32;99655.95;;;5.86;62.38
60246;BME280;46107;53.356;-1.524;2023-05-16T01:08:00;99653.17;;;6.17;62.53
60246;BME280;46107;53.356;-1.524;2023-05-16T01:10:35;99651.66;;;6.27;61.50
60246;BME280;46107;53.356;-1.524;2023-05-16T01:13:10;99646.01;;;7.02;59.94
60246;BME280;46107;53.356;-1.524;2023-05-16T01:15:45;99642.70;;;7.35;59.02
60246;BME280;46107;53.356;-1.524;2023-05-16T01:18:22;99643.92;;;6.35;60.54
60246;BME280;46107;53.356;-1.524;2023-05-16T01:20:55;99641.45;;;6.61;60.81
60246;BME280;46107;53.356;-1.524;2023-05-16T01:23:36;99638.08;;;7.12;59.93
60246;BME280;46107;53.356;-1.524;2023-05-16T01:26:14;99648.17;;;6.27;61.50
60246;BME280;46107;53.356;-1.524;2023-05-16T01:28:42;99647.85;;;7.13;60.13
60246;BME280;46107;53.356;-1.524;2023-05-16T01:31:10;99648.86;;;6.85;58.72
60246;BME280;46107;53.356;-1.524;2023-05-16T01:33:37;99651.30;;;6.35;60.82
60246;BME280;46107;53.356;-1.524;2023-05-16T01:36:12;99652.52;;;5.52;64.22
60246;BME280;46107;53.356;-1.524;2023-05-16T01:38:52;99655.20;;;5.87;65.50
60246;BME280;46107;53.356;-1.524;2023-05-16T01:41:28;99648.93;;;6.05;64.11
60246;BME280;46107;53.356;-1.524;2023-05-16T01:44:03;99647.70;;;6.66;61.79
60246;BME280;46107;53.356;-1.524;2023-05-16T01:46:39;99646.30;;;6.78;61.02
60246;BME280;46107;53.356;-1.524;2023-05-16T01:49:15;99648.27;;;5.89;65.30
60246;BME280;46107;53.356;-1.524;2023-05-16T01:51:47;99646.78;;;6.64;62.73
60246;BME280;46107;53.356;-1.524;2023-05-16T01:54:18;99647.13;;;6.36;63.71
60246;BME280;46107;53.356;-1.524;2023-05-16T01:56:50;99648.29;;;6.50;62.58
60246;BME280;46107;53.356;-1.524;2023-05-16T01:59:20;99647.18;;;6.23;63.15
60246;BME280;46107;53.356;-1.524;2023-05-16T02:01:48;99647.84;;;6.89;61.75
60246;BME280;46107;53.356;-1.524;2023-05-16T02:04:17;99642.51;;;5.90;64.63
60246;BME280;46107;53.356;-1.524;2023-05-16T02:06:44;99643.30;;;6.31;63.64
60246;BME280;46107;53.356;-1.524;2023-05-16T02:09:12;99636.50;;;7.05;60.37
60246;BME280;46107;53.356;-1.524;2023-05-16T02:11:40;99632.58;;;7.50;61.21
60246;BME280;46107;53.356;-1.524;2023-05-16T02:14:07;99629.66;;;6.94;60.80
60246;BME280;46107;53.356;-1.524;2023-05-16T02:16:35;99631.48;;;7.17;59.47
60246;BME280;46107;53.356;-1.524;2023-05-16T02:19:03;99632.41;;;6.67;61.35
60246;BME280;46107;53.356;-1.524;2023-05-16T02:21:30;99630.65;;;6.52;60.96
60246;BME280;46107;53.356;-1.524;2023-05-16T02:23:58;99631.68;;;7.05;60.51
60246;BME280;46107;53.356;-1.524;2023-05-16T02:26:25;99635.09;;;5.81;62.80
60246;BME280;46107;53.356;-1.524;2023-05-16T02:28:52;99631.23;;;6.86;60.71
60246;BME280;46107;53.356;-1.524;2023-05-16T02:31:28;99637.46;;;6.06;63.15
60246;BME280;46107;53.356;-1.524;2023-05-16T02:33:56;99637.97;;;5.71;64.23
60246;BME280;46107;53.356;-1.524;2023-05-16T02:36:24;99635.72;;;5.79;63.37
60246;BME280;46107;53.356;-1.524;2023-05-16T02:38:52;99635.96;;;6.11;63.67
60246;BME280;46107;53.356;-1.524;2023-05-16T02:41:19;99636.91;;;6.46;63.13
60246;BME280;46107;53.356;-1.524;2023-05-16T02:43:47;99637.33;;;6.39;63.81
60246;BME280;46107;53.356;-1.524;2023-05-16T02:46:25;99634.14;;;5.24;66.16
60246;BME280;46107;53.356;-1.524;2023-05-16T02:48:53;99633.01;;;6.69;62.87
60246;BME280;46107;53.356;-1.524;2023-05-16T02:51:22;99631.24;;;5.22;66.93
60246;BME280;46107;53.356;-1.524;2023-05-16T02:53:50;99629.35;;;5.10;68.34
60246;BME280;46107;53.356;-1.524;2023-05-16T02:56:18;99629.39;;;5.35;68.60
60246;BME280;46107;53.356;-1.524;2023-05-16T02:58:48;99631.55;;;4.75;71.83
60246;BME280;46107;53.356;-1.524;2023-05-16T03:01:16;99631.45;;;4.73;72.88
60246;BME280;46107;53.356;-1.524;2023-05-16T03:03:44;99634.24;;;4.40;72.36
60246;BME280;46107;53.356;-1.524;2023-05-16T03:06:11;99628.78;;;5.21;70.31
60246;BME280;46107;53.356;-1.524;2023-05-16T03:08:39;99635.88;;;4.14;75.12
60246;BME280;46107;53.356;-1.524;2023-05-16T03:11:06;99635.48;;;4.21;73.49
60246;BME280;46107;53.356;-1.524;2023-05-16T03:13:34;99632.42;;;4.66;72.22
60246;BME280;46107;53.356;-1.524;2023-05-16T03:16:02;99635.75;;;4.61;71.62
60246;BME280;46107;53.356;-1.524;2023-05-16T03:18:29;99631.80;;;5.91;68.19
60246;BME280;46107;53.356;-1.524;2023-05-16T03:20:57;99631.51;;;4.51;71.82
60246;BME280;46107;53.356;-1.524;2023-05-16T03:23:24;99630.27;;;5.80;68.70
60246;BME280;46107;53.356;-1.524;2023-05-16T03:25:52;99629.42;;;5.36;68.32
60246;BME280;46107;53.356;-1.524;2023-05-16T03:28:19;99624.36;;;5.60;68.77
60246;BME280;46107;53.356;-1.524;2023-05-16T03:30:47;99623.64;;;5.34;69.88
60246;BME280;46107;53.356;-1.524;2023-05-16T03:33:15;99631.96;;;5.56;70.41
60246;BME280;46107;53.356;-1.524;2023-05-16T03:35:47;99623.22;;;4.75;72.34
60246;BME280;46107;53.356;-1.524;2023-05-16T03:38:15;99622.78;;;5.01;71.54
60246;BME280;46107;53.356;-1.524;2023-05-16T03:40:42;99622.90;;;4.45;73.04
60246;BME280;46107;53.356;-1.524;2023-05-16T03:43:09;99619.58;;;4.88;72.61
60246;BME280;46107;53.356;-1.524;2023-05-16T03:45:37;99627.24;;;3.87;74.05
60246;BME280;46107;53.356;-1.524;2023-05-16T03:48:04;99627.41;;;4.34;75.47
60246;BME280;46107;53.356;-1.524;2023-05-16T03:50:32;99619.50;;;5.13;72.22
60246;BME280;46107;53.356;-1.524;2023-05-16T03:52:59;99626.50;;;5.30;71.59
60246;BME280;46107;53.356;-1.524;2023-05-16T03:55:27;99622.01;;;5.02;72.30
60246;BME280;46107;53.356;-1.524;2023-05-16T03:57:54;99626.79;;;4.76;72.29
60246;BME280;46107;53.356;-1.524;2023-05-16T04:00:22;99631.26;;;4.62;74.41
60246;BME280;46107;53.356;-1.524;2023-05-16T04:02:49;99625.63;;;4.79;73.19
60246;BME280;46107;53.356;-1.524;2023-05-16T04:05:18;99627.64;;;4.97;73.50
60246;BME280;46107;53.356;-1.524;2023-05-16T04:07:45;99630.31;;;4.68;73.31
60246;BME280;46107;53.356;-1.524;2023-05-16T04:10:13;99637.33;;;4.23;76.13
60246;BME280;46107;53.356;-1.524;2023-05-16T04:12:41;99639.24;;;3.96;79.49
60246;BME280;46107;53.356;-1.524;2023-05-16T04:15:09;99640.81;;;3.80;76.36
60246;BME280;46107;53.356;-1.524;2023-05-16T04:17:36;99641.17;;;4.33;76.60
60246;BME280;46107;53.356;-1.524;2023-05-16T04:20:04;99637.55;;;4.67;74.29
60246;BME280;46107;53.356;-1.524;2023-05-16T04:22:32;99644.87;;;4.59;74.90
60246;BME280;46107;53.356;-1.524;2023-05-16T04:25:00;99639.73;;;5.00;72.13
60246;BME280;46107;53.356;-1.524;2023-05-16T04:27:27;99645.85;;;4.51;73.43
60246;BME280;46107;53.356;-1.524;2023-05-16T04:29:55;99649.21;;;4.41;74.61
60246;BME280;46107;53.356;-1.524;2023-05-16T04:32:22;99651.63;;;4.76;73.11
60246;BME280;46107;53.356;-1.524;2023-05-16T04:34:50;99647.06;;;4.73;73.39
60246;BME280;46107;53.356;-1.524;2023-05-16T04:37:17;99646.07;;;5.19;71.20
60246;BME280;46107;53.356;-1.524;2023-05-16T04:39:45;99653.63;;;4.61;72.51
60246;BME280;46107;53.356;-1.524;2023-05-16T04:42:12;99642.50;;;4.89;71.12
60246;BME280;46107;53.356;-1.524;2023-05-16T04:44:40;99654.41;;;4.31;73.32
60246;BME280;46107;53.356;-1.524;2023-05-16T04:47:08;99649.35;;;4.78;72.47
60246;BME280;46107;53.356;-1.524;2023-05-16T04:49:35;99651.00;;;4.21;75.03
60246;BME280;46107;53.356;-1.524;2023-05-16T04:52:03;99652.59;;;4.35;74.96
60246;BME280;46107;53.356;-1.524;2023-05-16T04:54:31;99656.61;;;4.39;75.49
60246;BME280;46107;53.356;-1.524;2023-05-16T04:56:58;99657.31;;;4.36;73.99
60246;BME280;46107;53.356;-1.524;2023-05-16T04:59:26;99659.18;;;4.57;74.84
60246;BME280;46107;53.356;-1.524;2023-05-16T05:01:54;99649.26;;;5.84;69.43
60246;BME280;46107;53.356;-1.524;2023-05-16T05:04:21;99653.27;;;4.82;71.82
60246;BME280;46107;53.356;-1.524;2023-05-16T05:06:49;99659.78;;;4.89;73.08
60246;BME280;46107;53.356;-1.524;2023-05-16T05:09:16;99654.91;;;4.95;71.30
60246;BME280;46107;53.356;-1.524;2023-05-16T05:11:44;99659.17;;;4.80;73.09
60246;BME280;46107;53.356;-1.524;2023-05-16T05:14:12;99655.71;;;5.48;70.69
60246;BME280;46107;53.356;-1.524;2023-05-16T05:16:40;99661.06;;;4.75;72.92
60246;BME280;46107;53.356;-1.524;2023-05-16T05:19:07;99664.72;;;4.73;73.33
60246;BME280;46107;53.356;-1.524;2023-05-16T05:21:35;99660.65;;;5.27;72.16
60246;BME280;46107;53.356;-1.524;2023-05-16T05:24:02;99659.85;;;4.97;71.12
60246;BME280;46107;53.356;-1.524;2023-05-16T05:26:29;99660.02;;;5.27;70.62
60246;BME280;46107;53.356;-1.524;2023-05-16T05:28:57;99664.91;;;4.98;71.18
60246;BME280;46107;53.356;-1.524;2023-05-16T05:31:24;99668.34;;;4.80;73.00
60246;BME280;46107;53.356;-1.524;2023-05-16T05:33:52;99658.95;;;5.74;69.34
60246;BME280;46107;53.356;-1.524;2023-05-16T05:36:20;99667.64;;;4.60;73.02
60246;BME280;46107;53.356;-1.524;2023-05-16T05:38:48;99665.72;;;5.38;70.31
60246;BME280;46107;53.356;-1.524;2023-05-16T05:41:15;99674.41;;;4.73;72.05
60246;BME280;46107;53.356;-1.524;2023-05-16T05:43:43;99674.07;;;5.92;68.81
60246;BME280;46107;53.356;-1.524;2023-05-16T05:46:10;99676.85;;;5.48;70.05
60246;BME280;46107;53.356;-1.524;2023-05-16T05:48:38;99674.71;;;5.41;69.34
60246;BME280;46107;53.356;-1.524;2023-05-16T05:51:06;99677.83;;;5.82;68.21
60246;BME280;46107;53.356;-1.524;2023-05-16T05:53:34;99681.79;;;5.67;66.58
60246;BME280;46107;53.356;-1.524;2023-05-16T05:56:02;99684.81;;;5.60;67.99
60246;BME280;46107;53.356;-1.524;2023-05-16T05:58:29;99686.91;;;6.47;64.36
60246;BME280;46107;53.356;-1.524;2023-05-16T06:00:57;99690.15;;;6.58;62.99
60246;BME280;46107;53.356;-1.524;2023-05-16T06:03:24;99697.96;;;5.11;66.83
60246;BME280;46107;53.356;-1.524;2023-05-16T06:05:51;99694.59;;;6.49;63.84
60246;BME280;46107;53.356;-1.524;2023-05-16T06:08:19;99698.62;;;5.41;65.29
60246;BME280;46107;53.356;-1.524;2023-05-16T06:10:47;99701.20;;;6.35;63.87
60246;BME280;46107;53.356;-1.524;2023-05-16T06:13:15;99701.79;;;5.59;66.44
60246;BME280;46107;53.356;-1.524;2023-05-16T06:15:42;99699.72;;;6.72;61.40
60246;BME280;46107;53.356;-1.524;2023-05-16T06:18:14;99705.62;;;6.14;61.81
60246;BME280;46107;53.356;-1.524;2023-05-16T06:20:42;99700.92;;;6.70;60.28
60246;BME280;46107;53.356;-1.524;2023-05-16T06:23:09;99703.07;;;7.35;59.22
60246;BME280;46107;53.356;-1.524;2023-05-16T06:25:37;99705.59;;;6.59;60.25
60246;BME280;46107;53.356;-1.524;2023-05-16T06:28:05;99711.83;;;6.59;61.39
60246;BME280;46107;53.356;-1.524;2023-05-16T06:30:33;99711.98;;;6.45;62.04
60246;BME280;46107;53.356;-1.524;2023-05-16T06:33:00;99711.72;;;5.83;60.88
60246;BME280;46107;53.356;-1.524;2023-05-16T06:35:28;99714.25;;;7.55;57.75
60246;BME280;46107;53.356;-1.524;2023-05-16T06:37:55;99713.25;;;7.24;58.72
60246;BME280;46107;53.356;-1.524;2023-05-16T06:40:22;99717.68;;;7.20;60.37
60246;BME280;46107;53.356;-1.524;2023-05-16T06:42:50;99719.58;;;7.38;58.76
60246;BME280;46107;53.356;-1.524;2023-05-16T06:45:17;99722.92;;;7.49;57.49
60246;BME280;46107;53.356;-1.524;2023-05-16T06:47:45;99726.56;;;8.34;53.91
60246;BME280;46107;53.356;-1.524;2023-05-16T06:50:12;99725.07;;;8.33;54.47
60246;BME280;46107;53.356;-1.524;2023-05-16T06:52:41;99725.55;;;8.61;54.40
60246;BME280;46107;53.356;-1.524;2023-05-16T06:55:08;99727.68;;;8.72;53.70
60246;BME280;46107;53.356;-1.524;2023-05-16T06:57:36;99722.92;;;7.92;54.28
60246;BME280;46107;53.356;-1.524;2023-05-16T07:00:04;99728.07;;;9.12;51.75
60246;BME280;46107;53.356;-1.524;2023-05-16T07:02:32;99725.03;;;8.05;54.52
60246;BME280;46107;53.356;-1.524;2023-05-16T07:05:00;99721.09;;;7.90;51.87
60246;BME280;46107;53.356;-1.524;2023-05-16T07:07:28;99735.14;;;8.02;53.95
60246;BME280;46107;53.356;-1.524;2023-05-16T07:09:56;99740.17;;;8.72;52.09
60246;BME280;46107;53.356;-1.524;2023-05-16T07:12:24;99739.75;;;8.13;51.74
60246;BME280;46107;53.356;-1.524;2023-05-16T07:14:51;99743.80;;;8.33;54.05
60246;BME280;46107;53.356;-1.524;2023-05-16T07:17:19;99745.57;;;8.33;51.58
60246;BME280;46107;53.356;-1.524;2023-05-16T07:19:47;99742.75;;;9.15;52.55
60246;BME280;46107;53.356;-1.524;2023-05-16T07:22:14;99740.81;;;8.69;50.32
60246;BME280;46107;53.356;-1.524;2023-05-16T07:24:42;99743.06;;;8.82;50.83
60246;BME280;46107;53.356;-1.524;2023-05-16T07:27:09;99738.47;;;8.62;49.96
60246;BME280;46107;53.356;-1.524;2023-05-16T07:29:37;99742.06;;;8.48;50.99
60246;BME280;46107;53.356;-1.524;2023-05-16T07:32:05;99740.90;;;8.75;53.50
60246;BME280;46107;53.356;-1.524;2023-05-16T07:34:33;99743.23;;;9.39;48.44
60246;BME280;46107;53.356;-1.524;2023-05-16T07:37:01;99728.72;;;10.59;45.38
60246;BME280;46107;53.356;-1.524;2023-05-16T07:39:28;99728.40;;;9.51;47.70
60246;BME280;46107;53.356;-1.524;2023-05-16T07:42:01;99724.63;;;9.50;44.94
60246;BME280;46107;53.356;-1.524;2023-05-16T07:44:28;99728.57;;;9.92;48.78
60246;BME280;46107;53.356;-1.524;2023-05-16T07:46:55;99728.64;;;10.03;46.78
60246;BME280;46107;53.356;-1.524;2023-05-16T07:49:23;99732.34;;;9.44;47.84
60246;BME280;46107;53.356;-1.524;2023-05-16T07:51:50;99725.20;;;9.56;47.76
60246;BME280;46107;53.356;-1.524;2023-05-16T07:54:19;99730.68;;;10.07;45.48
60246;BME280;46107;53.356;-1.524;2023-05-16T07:56:47;99733.08;;;9.28;47.58
60246;BME280;46107;53.356;-1.524;2023-05-16T07:59:14;99731.72;;;9.64;48.89
60246;BME280;46107;53.356;-1.524;2023-05-16T08:01:42;99732.09;;;10.77;47.46
60246;BME280;46107;53.356;-1.524;2023-05-16T08:04:09;99733.65;;;10.75;45.20
60246;BME280;46107;53.356;-1.524;2023-05-16T08:06:37;99740.99;;;11.67;47.43
60246;BME280;46107;53.356;-1.524;2023-05-16T08:09:03;99741.40;;;10.44;46.97
60246;BME280;46107;53.356;-1.524;2023-05-16T08:11:32;99736.88;;;11.10;45.88
60246;BME280;46107;53.356;-1.524;2023-05-16T08:13:59;99736.15;;;10.96;48.48
60246;BME280;46107;53.356;-1.524;2023-05-16T08:16:26;99739.65;;;12.19;44.12
60246;BME280;46107;53.356;-1.524;2023-05-16T08:18:54;99741.33;;;9.74;46.45
60246;BME280;46107;53.356;-1.524;2023-05-16T08:21:21;99747.29;;;11.29;48.24
60246;BME280;46107;53.356;-1.524;2023-05-16T08:23:49;99749.80;;;11.37;47.27
60246;BME280;46107;53.356;-1.524;2023-05-16T08:26:17;99742.60;;;11.56;46.62
60246;BME280;46107;53.356;-1.524;2023-05-16T08:28:45;99746.63;;;11.81;44.44
60246;BME280;46107;53.356;-1.524;2023-05-16T08:31:12;99744.64;;;12.48;42.33
60246;BME280;46107;53.356;-1.524;2023-05-16T08:33:40;99743.42;;;12.48;45.33
60246;BME280;46107;53.356;-1.524;2023-05-16T08:36:09;99754.59;;;9.64;46.32
60246;BME280;46107;53.356;-1.524;2023-05-16T08:38:37;99733.67;;;10.03;48.29
60246;BME280;46107;53.356;-1.524;2023-05-16T08:41:04;99734.53;;;10.78;46.40
60246;BME280;46107;53.356;-1.524;2023-05-16T08:43:32;99736.43;;;10.81;46.78
60246;BME280;46107;53.356;-1.524;2023-05-16T08:45:59;99744.07;;;11.36;46.45
60246;BME280;46107;53.356;-1.524;2023-05-16T08:48:27;99740.46;;;10.97;47.73
60246;BME280;46107;53.356;-1.524;2023-05-16T08:50:59;99741.68;;;10.75;47.52
60246;BME280;46107;53.356;-1.524;2023-05-16T08:53:31;99740.67;;;11.49;47.41
60246;BME280;46107;53.356;-1.524;2023-05-16T08:56:05;99739.23;;;12.49;47.18
60246;BME280;46107;53.356;-1.524;2023-05-16T08:58:33;99740.72;;;11.67;45.47
60246;BME280;46107;53.356;-1.524;2023-05-16T09:01:03;99735.30;;;12.16;44.09
60246;BME280;46107;53.356;-1.524;2023-05-16T09:03:31;99739.68;;;12.63;43.85
60246;BME280;46107;53.356;-1.524;2023-05-16T09:05:58;99734.53;;;11.52;45.00
60246;BME280;46107;53.356;-1.524;2023-05-16T09:08:26;99738.88;;;12.13;46.89
60246;BME280;46107;53.356;-1.524;2023-05-16T09:10:54;99732.78;;;11.50;44.37
60246;BME280;46107;53.356;-1.524;2023-05-16T09:13:21;99729.95;;;10.72;44.97
60246;BME280;46107;53.356;-1.524;2023-05-16T09:16:07;99736.41;;;10.97;44.45
60246;BME280;46107;53.356;-1.524;2023-05-16T09:18:35;99734.00;;;11.68;48.37
60246;BME280;46107;53.356;-1.524;2023-05-16T09:21:04;99735.22;;;12.74;47.28
60246;BME280;46107;53.356;-1.524;2023-05-16T09:23:32;99734.97;;;12.45;44.78
60246;BME280;46107;53.356;-1.524;2023-05-16T09:26:00;99735.15;;;12.35;45.02
60246;BME280;46107;53.356;-1.524;2023-05-16T09:28:27;99744.05;;;13.51;45.70
60246;BME280;46107;53.356;-1.524;2023-05-16T09:30:55;99741.53;;;13.17;40.44
60246;BME280;46107;53.356;-1.524;2023-05-16T09:33:22;99751.27;;;11.13;44.18
60246;BME280;46107;53.356;-1.524;2023-05-16T09:35:55;99744.56;;;11.47;48.12
60246;BME280;46107;53.356;-1.524;2023-05-16T09:38:24;99737.40;;;9.99;45.91
60246;BME280;46107;53.356;-1.524;2023-05-16T09:40:52;99741.38;;;9.64;48.30
60246;BME280;46107;53.356;-1.524;2023-05-16T09:43:23;99741.60;;;10.78;47.47
60246;BME280;46107;53.356;-1.524;2023-05-16T09:45:52;99738.98;;;11.60;47.55
60246;BME280;46107;53.356;-1.524;2023-05-16T09:48:21;99740.92;;;10.81;48.14
60246;BME280;46107;53.356;-1.524;2023-05-16T09:50:50;99747.74;;;10.74;48.54
60246;BME280;46107;53.356;-1.524;2023-05-16T09:53:18;99743.94;;;10.74;51.25
60246;BME280;46107;53.356;-1.524;2023-05-16T09:55:59;99737.39;;;9.87;49.42
60246;BME280;46107;53.356;-1.524;2023-05-16T09:58:28;99737.49;;;9.97;51.28
60246;BME280;46107;53.356;-1.524;2023-05-16T10:00:57;99744.91;;;11.15;50.95
60246;BME280;46107;53.356;-1.524;2023-05-16T10:03:25;99746.27;;;10.09;52.16
60246;BME280;46107;53.356;-1.524;2023-05-16T10:05:54;99745.03;;;10.83;50.35
60246;BME280;46107;53.356;-1.524;2023-05-16T10:08:23;99743.92;;;10.49;52.12
60246;BME280;46107;53.356;-1.524;2023-05-16T10:10:53;99742.92;;;10.57;53.85
60246;BME280;46107;53.356;-1.524;2023-05-16T10:13:23;99737.85;;;11.88;49.69
60246;BME280;46107;53.356;-1.524;2023-05-16T10:15:50;99734.47;;;12.06;47.55
60246;BME280;46107;53.356;-1.524;2023-05-16T10:18:22;99734.24;;;10.99;50.80
60246;BME280;46107;53.356;-1.524;2023-05-16T10:20:52;99735.07;;;11.82;48.12
60246;BME280;46107;53.356;-1.524;2023-05-16T10:23:21;99727.74;;;11.81;45.99
60246;BME280;46107;53.356;-1.524;2023-05-16T10:25:51;99733.10;;;11.49;48.70
60246;BME280;46107;53.356;-1.524;2023-05-16T10:28:19;99739.48;;;11.00;50.80
60246;BME280;46107;53.356;-1.524;2023-05-16T10:30:48;99741.90;;;11.16;47.33
60246;BME280;46107;53.356;-1.524;2023-05-16T10:33:17;99754.13;;;11.98;48.54
60246;BME280;46107;53.356;-1.524;2023-05-16T10:35:45;99751.33;;;11.78;48.10
60246;BME280;46107;53.356;-1.524;2023-05-16T10:38:15;99755.87;;;10.21;49.32
60246;BME280;46107;53.356;-1.524;2023-05-16T10:40:44;99757.96;;;10.10;48.31
60246;BME280;46107;53.356;-1.524;2023-05-16T10:43:23;99761.22;;;10.25;53.55
60246;BME280;46107;53.356;-1.524;2023-05-16T10:45:54;99763.94;;;10.49;50.51
60246;BME280;46107;53.356;-1.524;2023-05-16T10:48:28;99757.09;;;10.84;51.67
60246;BME280;46107;53.356;-1.524;2023-05-16T10:50:56;99759.00;;;10.82;50.94
60246;BME280;46107;53.356;-1.524;2023-05-16T10:53:30;99761.48;;;11.20;52.57
60246;BME280;46107;53.356;-1.524;2023-05-16T10:56:13;99751.64;;;11.64;49.36
60246;BME280;46107;53.356;-1.524;2023-05-16T10:58:42;99744.44;;;9.81;49.24
60246;BME280;46107;53.356;-1.524;2023-05-16T11:01:27;99750.16;;;11.19;47.87
60246;BME280;46107;53.356;-1.524;2023-05-16T11:04:03;99746.65;;;11.13;48.18
60246;BME280;46107;53.356;-1.524;2023-05-16T11:06:31;99751.86;;;9.69;48.10
60246;BME280;46107;53.356;-1.524;2023-05-16T11:09:04;99748.90;;;10.66;50.44
60246;BME280;46107;53.356;-1.524;2023-05-16T11:11:41;99748.99;;;10.86;51.28
60246;BME280;46107;53.356;-1.524;2023-05-16T11:14:19;99753.59;;;13.03;45.27
60246;BME280;46107;53.356;-1.524;2023-05-16T11:16:48;99743.68;;;11.74;47.29
60246;BME280;46107;53.356;-1.524;2023-05-16T11:19:29;99741.22;;;12.04;44.18
60246;BME280;46107;53.356;-1.524;2023-05-16T11:22:06;99743.55;;;11.94;43.99
60246;BME280;46107;53.356;-1.524;2023-05-16T11:24:35;99740.67;;;12.24;45.49
60246;BME280;46107;53.356;-1.524;2023-05-16T11:27:03;99743.68;;;11.71;43.87
60246;BME280;46107;53.356;-1.524;2023-05-16T11:29:33;99743.00;;;12.01;44.75
60246;BME280;46107;53.356;-1.524;2023-05-16T11:32:02;99743.32;;;12.01;47.03
60246;BME280;46107;53.356;-1.524;2023-05-16T11:34:31;99748.53;;;11.56;44.36
60246;BME280;46107;53.356;-1.524;2023-05-16T11:37:02;99749.47;;;11.84;46.71
60246;BME280;46107;53.356;-1.524;2023-05-16T11:39:30;99746.30;;;11.61;46.75
60246;BME280;46107;53.356;-1.524;2023-05-16T11:41:58;99744.90;;;11.97;44.89
60246;BME280;46107;53.356;-1.524;2023-05-16T11:44:26;99755.09;;;11.54;46.61
60246;BME280;46107;53.356;-1.524;2023-05-16T11:46:53;99755.53;;;11.53;46.78
60246;BME280;46107;53.356;-1.524;2023-05-16T11:49:21;99750.41;;;12.55;45.34
60246;BME280;46107;53.356;-1.524;2023-05-16T11:51:48;99748.43;;;12.15;43.05
60246;BME280;46107;53.356;-1.524;2023-05-16T11:54:16;99743.88;;;13.30;46.89
60246;BME280;46107;53.356;-1.524;2023-05-16T11:56:45;99741.54;;;14.13;43.43
60246;BME280;46107;53.356;-1.524;2023-05-16T11:59:12;99747.74;;;15.17;46.93
60246;BME280;46107;53.356;-1.524;2023-05-16T12:01:39;99754.75;;;12.62;40.78
60246;BME280;46107;53.356;-1.524;2023-05-16T12:04:08;99752.84;;;13.74;41.69
60246;BME280;46107;53.356;-1.524;2023-05-16T12:06:35;99750.14;;;12.30;42.00
60246;BME280;46107;53.356;-1.524;2023-05-16T12:09:03;99749.52;;;12.46;39.90
60246;BME280;46107;53.356;-1.524;2023-05-16T12:11:31;99755.73;;;12.46;41.30
60246;BME280;46107;53.356;-1.524;2023-05-16T12:13:59;99760.01;;;12.33;41.31
60246;BME280;46107;53.356;-1.524;2023-05-16T12:16:26;99762.74;;;11.26;42.02
60246;BME280;46107;53.356;-1.524;2023-05-16T12:18:54;99769.63;;;12.19;44.00
60246;BME280;46107;53.356;-1.524;2023-05-16T12:21:21;99766.46;;;12.70;45.86
60246;BME280;46107;53.356;-1.524;2023-05-16T12:23:49;99760.64;;;12.50;42.31
60246;BME280;46107;53.356;-1.524;2023-05-16T12:26:24;99759.93;;;12.70;46.01
60246;BME280;46107;53.356;-1.524;2023-05-16T12:28:53;99757.85;;;12.91;43.11
60246;BME280;46107;53.356;-1.524;2023-05-16T12:31:20;99755.85;;;12.88;43.97
60246;BME280;46107;53.356;-1.524;2023-05-16T12:33:52;99752.20;;;12.30;43.95
60246;BME280;46107;53.356;-1.524;2023-05-16T12:36:20;99758.27;;;13.21;47.37
60246;BME280;46107;53.356;-1.524;2023-05-16T12:38:48;99756.62;;;13.72;44.97
60246;BME280;46107;53.356;-1.524;2023-05-16T12:41:17;99751.59;;;13.46;42.05
60246;BME280;46107;53.356;-1.524;2023-05-16T12:43:44;99750.67;;;12.85;44.29
60246;BME280;46107;53.356;-1.524;2023-05-16T12:46:12;99749.46;;;11.95;46.71
60246;BME280;46107;53.356;-1.524;2023-05-16T12:48:39;99756.56;;;12.70;44.80
60246;BME280;46107;53.356;-1.524;2023-05-16T12:51:11;99752.74;;;11.69;43.65
60246;BME280;46107;53.356;-1.524;2023-05-16T12:53:43;99753.46;;;11.82;44.45
60246;BME280;46107;53.356;-1.524;2023-05-16T12:56:12;99756.95;;;11.78;46.17
60246;BME280;46107;53.356;-1.524;2023-05-16T12:58:39;99758.25;;;12.13;44.30
60246;BME280;46107;53.356;-1.524;2023-05-16T13:01:07;99760.81;;;12.02;46.61
60246;BME280;46107;53.356;-1.524;2023-05-16T13:03:34;99760.61;;;10.89;47.91
60246;BME280;46107;53.356;-1.524;2023-05-16T13:06:02;99764.20;;;11.03;46.52